Terminal Aerodrome Forecast
Issued by NWS Northern Indiana

Home | Current Version | Previous Version | Text Only | Print | Product List | Glossary Off
Versions: 1 2 3 4 5 6 7 8 9 10 11 12 13 14 15 16 17 18 19 20

000
FTUS43 KIWX 230949 AAC
TAFFWA
TAF AMD
KFWA 230949Z 2310/2406 25010KT P6SM -SHRA OVC015
      TEMPO 2310/2312 5SM BR BKN008
     FM231700 27015G23KT P6SM VCSH OVC020
     FM240200 29011KT P6SM BKN025=

USA.gov is the U.S. government's official web portal to all federal, state and local government web resources and services.